Nearby METAR Reports

 

EGSS - Stansted Airport, United Kingdom
Distance from station: NW 15mi, 24km
Updated: 24/10/2020 20:50
Light rain, Thunderstorm
Light rain, Thunderstorm
 Wind from SW
Wind: SW 15 mph , 24 km/h
Temperature: 12°C
Dew Point: 12°C
Humidity: 100%
Barometer: 995 hPa
Summary: Light rain
Clouds: Thunderstorm
Visibility: 6 miles , 10 km
Cloud details: Partly cloudy 427 m
Mostly cloudy 640 m
2020/10/24 19:50 EGSS 241950Z AUTO 22013KT 9999 -RA SCT014/// BKN021/// //////CB 12/12 Q0995
EGMC - Southend-On-Sea, United Kingdom
Distance from station: SE 15mi, 25km
Updated: 24/10/2020 20:20
Light rain, Mostly cloudy
Light rain, Mostly cloudy
 Wind from S
Wind: S 26 mph , 43 km/h, Gust: 40 mph , 65 km/h
Temperature: 15°C
Dew Point: 13°C
Humidity: 88%
Barometer: 995 hPa
Summary: Light rain
Clouds: Mostly cloudy
Visibility: 6 miles , 10 km
Cloud details: Few Clouds 244 m
Mostly cloudy 488 m
2020/10/24 19:20 EGMC 241920Z 19023G35KT 9999 -RA FEW008 BKN016 15/13 Q0995
 
EGLC - London City Airp, United Kingdom
Distance from station: SW 24mi, 39km
Updated: 24/10/2020 20:50
Light rain, Thunderstorm
Light rain, Thunderstorm
 Wind from SSW
Wind: SSW 15 mph , 24 km/h
Temperature: 14°C
Dew Point: 12°C
Humidity: 88%
Barometer: 995 hPa
Summary: Light rain
Clouds: Thunderstorm
Visibility: 6 miles , 10 km
Cloud details: Few Clouds 518 m
2020/10/24 19:50 EGLC 241950Z AUTO 20013KT 170V240 9999 -RA FEW017/// //////CB 14/12 Q0995 RESHGR
EGUW - Wattisham Raf, United Kingdom
Distance from station: NE 34mi, 54km
Updated: 24/10/2020 19:50
Mostly cloudy
Mostly cloudy
 Wind from SSW
Wind: SSW 22 mph , 35 km/h, Gust: 37 mph , 59 km/h
Temperature: 15°C
Dew Point: 13°C
Humidity: 88%
Barometer: 995 hPa
Clouds: Mostly cloudy
Visibility: 6 miles , 10 km
Cloud details: Mostly cloudy 518 m
2020/10/24 18:50 EGUW 241850Z AUTO 20019G32KT 9999 BKN017/// 15/13 Q0995 REDZ
 
EGGW - Luton Airport, United Kingdom
Distance from station: WNW 37mi, 59km
Updated: 24/10/2020 20:50
Light rain, Thunderstorm
Light rain, Thunderstorm
 Wind from SSW
Wind: SSW 12 mph , 19 km/h
Temperature: 12°C
Dew Point: 11°C
Humidity: 94%
Barometer: 994 hPa
Summary: Light rain
Clouds: Thunderstorm
Visibility: 6 miles , 10 km
Cloud details: Mostly cloudy 274 m
Overcast 427 m
2020/10/24 19:50 EGGW 241950Z AUTO 21010KT 9999 -RA BKN009/// OVC014/// //////TCU 12/11 Q0994
EGWU - Northolt Raf, United Kingdom
Distance from station: WSW 40mi, 64km
Updated: 24/10/2020 19:50
Mostly cloudy
Mostly cloudy
 Wind from SW
Wind: SW 13 mph , 20 km/h
Temperature: 13°C
Dew Point: 12°C
Humidity: 94%
Barometer: 995 hPa
Clouds: Mostly cloudy
Visibility: 3 miles , 5 km
Cloud details: Few Clouds 335 m
Mostly cloudy 853 m
2020/10/24 18:50 EGWU 241850Z AUTO 23011KT 4600 // FEW011/// BKN028/// 13/12 Q0995